Time;durP1;ratioP1;P1;durP2;ratioP2;P2;SDS_P1;SDS_P2;PMS_P1;PMS_P2;Temp;Humidity;BMP_temperature;BMP_pressure;BME280_temperature;BME280_humidity;BME280_pressure;Samples;Min_cycle;Max_cycle;Signal;HPM_P1;HPM_P2
2023/01/19 05:30:23;;;;;;;4.65;2.20;;;4.10;83.00;;;;;;5881253;23;20109;-75
2023/01/19 05:32:49;;;;;;;1.92;1.83;;;4.10;83.10;;;;;;4963399;28;20114;-79
2023/01/19 05:35:15;;;;;;;3.03;2.13;;;4.10;83.00;;;;;;4938687;29;20039;-81
2023/01/19 05:37:41;;;;;;;1.67;1.58;;;4.10;83.10;;;;;;4957181;29;20525;-78
2023/01/19 05:40:08;;;;;;;2.13;1.92;;;4.10;83.00;;;;;;4957057;28;20031;-78
2023/01/19 05:42:34;;;;;;;2.30;2.05;;;4.10;83.20;;;;;;4957404;28;20023;-78
2023/01/19 05:45:00;;;;;;;1.67;1.58;;;4.10;83.10;;;;;;4957411;29;20103;-78
2023/01/19 05:47:38;;;;;;;1.60;1.50;;;4.10;83.20;;;;;;4939567;29;20497;-78
2023/01/19 05:50:05;;;;;;;6.30;2.03;;;4.10;83.10;;;;;;4957281;29;20040;-80
2023/01/19 05:52:30;;;;;;;3.85;2.10;;;4.00;83.10;;;;;;4940107;29;20027;-79
2023/01/19 05:54:56;;;;;;;3.85;2.42;;;4.00;83.10;;;;;;4940700;29;20393;-78
2023/01/19 05:57:25;;;;;;;3.33;1.73;;;4.00;83.10;;;;;;4957369;29;20027;-86
2023/01/19 05:59:50;;;;;;;1.70;1.60;;;4.00;82.90;;;;;;4958792;29;20027;-82
2023/01/19 06:02:16;;;;;;;2.20;1.73;;;4.00;83.20;;;;;;4961155;28;20029;-81
2023/01/19 06:04:48;;;;;;;1.50;1.40;;;4.00;83.20;;;;;;4965591;28;20098;-82
2023/01/19 06:07:13;;;;;;;3.55;2.13;;;4.00;83.20;;;;;;4968140;28;20030;-87
2023/01/19 06:09:39;;;;;;;1.38;1.27;;;4.00;83.10;;;;;;4977468;28;20023;-89
2023/01/19 06:12:05;;;;;;;3.17;2.17;;;3.90;82.90;;;;;;4958324;28;20461;-89
2023/01/19 06:14:31;;;;;;;4.65;2.50;;;3.90;83.20;;;;;;4945630;29;20802;-88
2023/01/19 06:16:57;;;;;;;4.20;2.97;;;3.90;83.20;;;;;;4951279;28;20027;-88
2023/01/19 06:19:22;;;;;;;4.80;2.70;;;3.90;83.30;;;;;;4961596;28;20085;-87
2023/01/19 06:22:00;;;;;;;10.40;3.63;;;4.00;83.20;;;;;;4969447;28;20829;-86
2023/01/19 06:24:26;;;;;;;7.47;3.38;;;3.90;83.10;;;;;;4927586;29;20037;-87
2023/01/19 06:26:52;;;;;;;6.88;3.78;;;3.90;83.10;;;;;;4941121;29;20118;-88
2023/01/19 06:29:18;;;;;;;9.73;5.07;;;3.90;83.00;;;;;;4968633;28;20077;-87
2023/01/19 06:31:44;;;;;;;9.73;4.13;;;3.90;83.20;;;;;;4941713;29;20043;-87
2023/01/19 06:34:10;;;;;;;4.28;3.80;;;3.90;83.10;;;;;;4959925;28;20506;-88
2023/01/19 06:36:36;;;;;;;9.32;3.88;;;3.90;83.40;;;;;;4940268;29;20019;-88
2023/01/19 06:39:04;;;;;;;5.10;3.28;;;3.90;83.20;;;;;;4959533;28;20099;-86
2023/01/19 06:41:34;;;;;;;8.93;3.90;;;4.00;83.20;;;;;;4958442;29;20038;-87
2023/01/19 06:44:00;;;;;;;2.80;2.35;;;3.90;83.10;;;;;;4957349;29;20027;-88
2023/01/19 06:46:26;;;;;;;5.05;2.88;;;3.90;83.00;;;;;;4943051;29;20035;-88
2023/01/19 06:48:53;;;;;;;4.50;3.20;;;3.90;83.10;;;;;;4957577;29;20557;-86
2023/01/19 06:51:19;;;;;;;4.55;3.33;;;3.90;83.00;;;;;;4966020;28;20023;-81
2023/01/19 06:53:44;;;;;;;3.30;3.00;;;3.90;83.00;;;;;;4956104;28;20055;-81
2023/01/19 06:56:10;;;;;;;4.43;3.28;;;4.00;82.90;;;;;;4957361;29;20028;-80
2023/01/19 06:58:36;;;;;;;7.75;2.58;;;3.90;82.90;;;;;;4957506;28;20043;-81
2023/01/19 07:01:06;;;;;;;5.88;3.10;;;4.00;82.80;;;;;;4960899;29;20023;-81
2023/01/19 07:03:32;;;;;;;5.97;3.25;;;3.90;82.60;;;;;;4960849;28;20040;-81
2023/01/19 07:06:01;;;;;;;2.72;2.47;;;3.80;82.70;;;;;;4960643;29;20035;-81
2023/01/19 07:08:27;;;;;;;2.67;2.47;;;3.90;82.80;;;;;;4960988;28;20028;-81
2023/01/19 07:11:03;;;;;;;4.30;2.55;;;3.90;83.00;;;;;;4967244;28;20015;-81
2023/01/19 07:13:32;;;;;;;3.45;3.15;;;3.80;82.90;;;;;;4963033;28;20030;-81
2023/01/19 07:16:03;;;;;;;5.72;2.38;;;3.80;83.10;;;;;;4978799;28;20113;-81
2023/01/19 07:18:29;;;;;;;2.92;2.33;;;3.80;83.00;;;;;;4979843;28;20531;-81
2023/01/19 07:20:56;;;;;;;4.93;2.60;;;3.90;82.90;;;;;;4979796;28;20027;-81
2023/01/19 07:23:22;;;;;;;6.38;3.00;;;3.90;82.90;;;;;;4962492;28;20030;-81
2023/01/19 07:25:48;;;;;;;3.42;3.15;;;3.80;82.70;;;;;;4958552;29;20577;-81
2023/01/19 07:28:15;;;;;;;5.45;3.45;;;3.80;82.90;;;;;;4962586;28;20758;-81
2023/01/19 07:30:45;;;;;;;4.75;3.75;;;3.80;83.20;;;;;;4960119;28;20565;-81
2023/01/19 07:33:11;;;;;;;6.28;3.00;;;3.90;83.20;;;;;;4960071;28;20035;-81
2023/01/19 07:35:56;;;;;;;2.83;2.63;;;3.90;83.10;;;;;;4960249;28;20023;-81
2023/01/19 07:38:22;;;;;;;3.72;3.42;;;3.90;83.10;;;;;;4960275;28;20121;-81
2023/01/19 07:40:47;;;;;;;3.28;2.63;;;3.90;82.90;;;;;;4960043;29;20058;-81
2023/01/19 07:43:14;;;;;;;3.13;2.80;;;3.80;83.10;;;;;;4943176;29;20085;-81
2023/01/19 07:45:40;;;;;;;3.47;2.92;;;3.90;83.10;;;;;;4942962;29;20034;-81
2023/01/19 07:48:05;;;;;;;3.10;2.80;;;3.90;83.20;;;;;;4943403;29;20035;-81
2023/01/19 07:50:31;;;;;;;4.28;3.13;;;3.90;83.20;;;;;;4960087;29;20023;-81
2023/01/19 07:53:07;;;;;;;7.35;3.58;;;4.00;83.00;;;;;;4960077;29;20034;-81
2023/01/19 07:55:32;;;;;;;6.05;4.05;;;3.90;83.00;;;;;;4950926;29;20078;-81
2023/01/19 07:57:58;;;;;;;7.15;3.30;;;3.90;82.80;;;;;;4947449;29;20039;-80
2023/01/19 08:00:24;;;;;;;5.47;4.45;;;3.80;83.10;;;;;;4960425;29;20073;-81
2023/01/19 08:02:51;;;;;;;6.60;3.88;;;3.90;83.10;;;;;;4960232;28;20023;-81
2023/01/19 08:05:18;;;;;;;7.65;4.10;;;3.90;83.10;;;;;;4959924;28;20042;-81
2023/01/19 08:07:45;;;;;;;3.60;3.38;;;3.80;83.00;;;;;;4959690;29;20023;-81
2023/01/19 08:10:12;;;;;;;6.75;3.63;;;3.80;83.10;;;;;;4959442;28;20027;-81
2023/01/19 08:12:37;;;;;;;5.00;3.70;;;3.80;83.10;;;;;;4967566;28;20039;-81
2023/01/19 08:15:04;;;;;;;3.47;3.17;;;3.80;83.20;;;;;;4959407;29;20198;-81
2023/01/19 08:17:30;;;;;;;11.27;3.97;;;3.80;83.20;;;;;;4963418;28;20026;-81
2023/01/19 08:19:56;;;;;;;5.22;3.70;;;3.90;83.10;;;;;;4978448;28;20033;-81
2023/01/19 08:22:21;;;;;;;3.92;3.60;;;3.90;83.30;;;;;;4978742;28;20038;-81
2023/01/19 08:24:47;;;;;;;4.63;3.30;;;3.90;83.20;;;;;;4960548;28;20031;-81
2023/01/19 08:27:13;;;;;;;4.38;3.47;;;3.90;83.20;;;;;;4961253;28;20098;-81
2023/01/19 08:29:38;;;;;;;7.05;4.20;;;3.90;83.30;;;;;;4942293;29;20024;-81
2023/01/19 08:32:05;;;;;;;12.02;6.32;;;3.90;83.20;;;;;;4958949;28;20102;-81
2023/01/19 08:34:31;;;;;;;9.07;7.65;;;3.90;83.30;;;;;;4949652;28;20489;-82
2023/01/19 08:36:58;;;;;;;11.43;8.23;;;3.90;83.20;;;;;;4942248;29;20082;-81
2023/01/19 08:39:24;;;;;;;14.02;10.07;;;4.00;83.20;;;;;;4942151;29;20027;-81
2023/01/19 08:41:51;;;;;;;25.52;14.02;;;4.00;83.20;;;;;;4941783;29;20629;-81
2023/01/19 08:44:17;;;;;;;16.88;11.40;;;4.00;83.00;;;;;;4958936;29;20045;-81
2023/01/19 08:46:43;;;;;;;12.30;9.10;;;4.00;83.10;;;;;;4958864;29;20054;-81
2023/01/19 08:49:08;;;;;;;9.93;7.60;;;4.10;83.20;;;;;;4958998;29;20398;-82
2023/01/19 08:51:34;;;;;;;14.38;7.28;;;4.10;83.40;;;;;;4959018;28;20035;-81
2023/01/19 08:54:00;;;;;;;8.73;4.47;;;4.10;83.00;;;;;;4941516;29;20115;-81
2023/01/19 08:56:25;;;;;;;8.27;4.90;;;4.10;83.10;;;;;;4958599;28;20093;-81
2023/01/19 08:58:51;;;;;;;5.93;4.13;;;4.10;82.80;;;;;;4958784;29;20031;-81
2023/01/19 09:01:19;;;;;;;9.77;5.63;;;4.10;82.70;;;;;;4941605;29;20027;-81
2023/01/19 09:03:45;;;;;;;12.70;5.03;;;4.10;82.90;;;;;;4958557;28;20046;-81
2023/01/19 09:06:13;;;;;;;4.35;3.53;;;4.10;83.10;;;;;;4941024;29;20027;-81
2023/01/19 09:08:39;;;;;;;6.03;3.90;;;4.10;83.20;;;;;;4941164;28;20023;-81
2023/01/19 09:11:10;;;;;;;6.57;4.70;;;4.10;83.40;;;;;;4966402;28;20027;-81
2023/01/19 09:13:36;;;;;;;3.50;2.75;;;4.20;83.10;;;;;;4977710;28;20027;-81
2023/01/19 09:16:02;;;;;;;7.30;4.60;;;4.20;83.00;;;;;;4955616;29;20035;-81
2023/01/19 09:18:28;;;;;;;5.82;4.63;;;4.20;83.00;;;;;;4940956;29;20115;-81
2023/01/19 09:20:56;;;;;;;12.45;8.13;;;4.20;82.70;;;;;;4958213;28;20019;-81
2023/01/19 09:23:22;;;;;;;15.93;8.88;;;4.20;82.90;;;;;;4957657;29;20027;-81
2023/01/19 09:25:54;;;;;;;13.48;6.75;;;4.20;82.90;;;;;;4948859;28;20027;-81
2023/01/19 09:28:19;;;;;;;11.27;6.60;;;4.20;82.90;;;;;;4977650;28;20039;-81
2023/01/19 09:30:45;;;;;;;8.55;4.63;;;4.20;83.10;;;;;;4976408;28;20179;-81
2023/01/19 09:33:16;;;;;;;4.75;3.97;;;4.20;83.20;;;;;;4957705;28;20023;-81
2023/01/19 09:35:44;;;;;;;6.93;4.47;;;4.20;82.80;;;;;;4958747;28;20435;-81
2023/01/19 09:38:11;;;;;;;7.55;3.50;;;4.20;83.00;;;;;;4958283;29;20106;-82
2023/01/19 09:40:48;;;;;;;4.50;3.95;;;4.30;83.20;;;;;;4969570;28;20027;-82
2023/01/19 09:43:22;;;;;;;6.35;4.05;;;4.30;82.80;;;;;;4976386;28;20041;-82
2023/01/19 09:45:57;;;;;;;4.70;2.92;;;4.30;83.10;;;;;;4977173;28;20022;-81
2023/01/19 09:48:31;;;;;;;7.43;4.50;;;4.30;82.90;;;;;;4968775;28;20063;-81
2023/01/19 09:51:02;;;;;;;7.97;4.75;;;4.30;83.00;;;;;;4940552;29;20023;-81
2023/01/19 09:53:55;;;;;;;8.02;4.72;;;4.30;82.70;;;;;;4964333;28;20031;-82
2023/01/19 09:56:22;;;;;;;6.15;4.60;;;4.30;82.90;;;;;;4954052;29;20393;-82
2023/01/19 09:58:49;;;;;;;7.47;5.57;;;4.40;83.10;;;;;;4958014;29;20046;-82
2023/01/19 10:01:26;;;;;;;9.57;5.07;;;4.40;82.70;;;;;;4949646;28;20022;-82
2023/01/19 10:04:22;;;;;;;6.40;4.68;;;4.40;82.80;;;;;;4973159;28;20039;-82
2023/01/19 10:06:48;;;;;;;7.65;4.88;;;4.40;82.90;;;;;;4952492;29;20494;-82
2023/01/19 10:09:24;;;;;;;16.55;6.32;;;4.40;82.90;;;;;;4957636;28;20027;-82
2023/01/19 10:12:00;;;;;;;22.95;8.35;;;4.30;82.90;;;;;;4971220;28;20027;-82
2023/01/19 10:15:20;;;;;;;10.85;5.07;;;4.30;83.00;;;;;;4977119;28;20034;-82
2023/01/19 10:18:04;;;;;;;;;;;4.30;83.20;;;;;;4920171;28;20051;-82
2023/01/19 10:20:42;;;;;;;4.80;3.60;;;4.50;83.20;;;;;;4957547;28;19925;-82
2023/01/19 10:23:36;;;;;;;8.35;4.63;;;4.60;82.80;;;;;;4957546;29;20035;-82
2023/01/19 10:26:13;;;;;;;14.02;6.07;;;4.60;82.90;;;;;;4948478;28;20051;-82
2023/01/19 10:28:39;;;;;;;8.73;5.43;;;4.60;82.60;;;;;;4958074;29;20066;-82
2023/01/19 10:31:08;;;;;;;10.02;6.57;;;4.60;82.70;;;;;;4942509;29;20450;-82
2023/01/19 10:33:34;;;;;;;10.98;6.65;;;4.50;82.80;;;;;;4941824;28;20027;-81
2023/01/19 10:36:14;;;;;;;16.45;8.70;;;4.50;82.80;;;;;;4961240;29;20099;-82
2023/01/19 10:38:39;;;;;;;13.90;9.30;;;4.40;83.00;;;;;;4961285;28;20031;-82
2023/01/19 10:41:37;;;;;;;11.05;7.38;;;4.50;83.30;;;;;;4944205;29;20122;-82
2023/01/19 10:44:04;;;;;;;11.18;5.68;;;4.60;83.40;;;;;;4961081;29;20133;-82
2023/01/19 10:46:42;;;;;;;7.03;4.90;;;4.70;83.00;;;;;;4960946;29;20116;-81
2023/01/19 10:49:28;;;;;;;8.05;5.63;;;4.60;83.10;;;;;;4943672;29;20042;-81
2023/01/19 10:51:57;;;;;;;10.60;5.25;;;4.70;83.10;;;;;;4943802;29;20032;-81
2023/01/19 10:54:24;;;;;;;13.98;5.40;;;4.60;83.30;;;;;;4969088;28;20030;-81
2023/01/19 10:56:59;;;;;;;5.22;4.63;;;4.70;83.40;;;;;;4962713;28;20464;-82
2023/01/19 10:59:48;;;;;;;13.57;5.72;;;4.70;83.20;;;;;;4969772;28;20126;-82
2023/01/19 11:02:26;;;;;;;10.75;5.97;;;4.70;83.00;;;;;;4961022;29;20062;-82
2023/01/19 11:04:57;;;;;;;13.73;7.97;;;4.70;83.00;;;;;;4960879;28;20024;-82
2023/01/19 11:07:32;;;;;;;11.05;7.03;;;4.70;82.90;;;;;;4960835;28;20094;-82
2023/01/19 11:10:21;;;;;;;12.13;5.82;;;4.70;82.90;;;;;;4960822;29;20558;-82
2023/01/19 11:12:59;;;;;;;9.77;7.13;;;4.70;83.10;;;;;;4953952;28;20033;-81
2023/01/19 11:15:34;;;;;;;9.40;5.35;;;4.70;83.20;;;;;;4952805;28;20039;-82
2023/01/19 11:18:03;;;;;;;9.30;4.57;;;4.70;83.10;;;;;;4967105;28;20065;-82
2023/01/19 11:20:47;;;;;;;7.85;5.22;;;4.80;83.40;;;;;;4978779;28;20034;-78
2023/01/19 11:23:15;;;;;;;8.32;6.32;;;4.80;83.20;;;;;;4964141;28;20019;-80
2023/01/19 11:25:46;;;;;;;9.63;5.80;;;4.90;83.10;;;;;;4960071;28;20134;-81
2023/01/19 11:28:19;;;;;;;11.05;6.88;;;4.90;82.80;;;;;;4965863;28;20034;-81
2023/01/19 11:31:09;;;;;;;11.40;6.97;;;4.90;83.30;;;;;;4958175;28;20050;-81
2023/01/19 11:33:40;;;;;;;22.58;9.65;;;4.90;83.10;;;;;;4970852;28;20486;-80
2023/01/19 11:36:31;;;;;;;15.35;7.70;;;4.90;83.10;;;;;;4963632;28;20122;-81
2023/01/19 11:38:58;;;;;;;;;;;5.00;83.30;;;;;;4967320;28;20035;-81
2023/01/19 11:41:29;;;;;;;15.80;8.07;;;5.10;83.30;;;;;;4949788;28;19930;-80
2023/01/19 11:44:20;;;;;;;11.38;7.65;;;5.00;82.70;;;;;;4944840;28;20039;-81
2023/01/19 11:46:51;;;;;;;12.13;6.40;;;5.00;83.30;;;;;;4944725;29;20046;-81
2023/01/19 11:49:57;;;;;;;10.23;5.95;;;5.10;83.00;;;;;;4943051;28;20035;-78
2023/01/19 11:52:53;;;;;;;11.68;6.65;;;5.10;83.30;;;;;;4962219;28;20146;-85
2023/01/19 11:55:40;;;;;;;9.93;7.72;;;5.20;83.30;;;;;;4962757;28;20035;-82
2023/01/19 11:58:09;;;;;;;12.20;7.40;;;5.30;83.20;;;;;;4969039;28;20089;-77
2023/01/19 12:01:01;;;;;;;18.40;7.60;;;5.30;82.90;;;;;;4961639;28;20553;-77
2023/01/19 12:03:29;;;;;;;12.63;6.78;;;5.20;83.00;;;;;;4960538;28;20086;-76
2023/01/19 12:06:01;;;;;;;10.18;7.45;;;5.20;83.20;;;;;;4964072;28;20031;-77
2023/01/19 12:08:50;;;;;;;8.40;5.50;;;5.10;83.10;;;;;;4968290;28;20110;-86
2023/01/19 12:11:22;;;;;;;10.52;5.10;;;5.20;83.50;;;;;;4954348;28;20035;-81
2023/01/19 12:13:50;;;;;;;9.52;5.45;;;5.20;83.50;;;;;;4952797;28;20034;-80
2023/01/19 12:16:21;;;;;;;6.80;4.63;;;5.30;83.50;;;;;;4967136;28;20035;-79
2023/01/19 12:19:02;;;;;;;6.60;4.05;;;5.20;82.50;;;;;;4977235;28;20078;-78
2023/01/19 12:21:28;;;;;;;7.72;3.58;;;5.30;83.10;;;;;;4941738;29;20099;-82
2023/01/19 12:24:15;;;;;;;3.45;3.15;;;5.40;83.10;;;;;;4941314;28;20514;-83
2023/01/19 12:26:58;;;;;;;7.13;4.18;;;5.40;82.90;;;;;;4941087;29;20089;-78
2023/01/19 12:29:29;;;;;;;4.03;2.92;;;5.50;82.80;;;;;;4961698;28;20027;-81
2023/01/19 12:32:15;;;;;;;5.13;2.92;;;5.50;82.70;;;;;;4955747;28;20050;-83
2023/01/19 12:34:45;;;;;;;8.45;3.67;;;5.50;82.30;;;;;;4943276;28;20134;-80
2023/01/19 12:37:29;;;;;;;3.00;2.50;;;5.60;82.60;;;;;;4953215;28;20094;-83
2023/01/19 12:39:56;;;;;;;4.18;3.03;;;5.70;82.20;;;;;;4959903;28;20092;-81
2023/01/19 12:42:23;;;;;;;5.25;3.25;;;5.70;82.10;;;;;;4944071;28;20164;-77
2023/01/19 12:45:07;;;;;;;5.85;3.33;;;5.70;82.00;;;;;;4947013;28;20058;-77
2023/01/19 12:47:35;;;;;;;9.60;2.90;;;5.70;82.00;;;;;;4961815;28;20067;-79
2023/01/19 12:50:06;;;;;;;4.07;3.25;;;5.70;81.40;;;;;;4965029;28;20103;-77
2023/01/19 12:52:34;;;;;;;6.18;3.17;;;5.70;81.70;;;;;;4965922;28;20023;-77
2023/01/19 12:55:01;;;;;;;4.53;3.13;;;5.60;82.10;;;;;;4959927;28;20035;-78
2023/01/19 12:57:41;;;;;;;5.35;3.42;;;5.70;82.20;;;;;;4945874;28;20038;-77
2023/01/19 13:00:31;;;;;;;7.05;3.17;;;5.80;82.10;;;;;;4941817;29;20050;-78
2023/01/19 13:02:58;;;;;;;5.32;3.30;;;5.70;81.90;;;;;;4965201;28;20039;-78
2023/01/19 13:05:30;;;;;;;6.28;3.80;;;5.70;81.50;;;;;;4963555;28;20401;-77
2023/01/19 13:08:01;;;;;;;5.53;3.95;;;5.80;81.90;;;;;;4964653;28;20035;-78
2023/01/19 13:10:58;;;;;;;5.20;3.47;;;5.90;81.80;;;;;;4965947;28;20020;-78
2023/01/19 13:13:38;;;;;;;6.22;3.40;;;5.90;82.00;;;;;;4963541;28;20034;-78
2023/01/19 13:16:20;;;;;;;3.90;3.05;;;6.00;81.50;;;;;;4949294;28;20026;-78
2023/01/19 13:18:48;;;;;;;8.85;3.75;;;6.00;81.10;;;;;;4959818;28;20050;-78
2023/01/19 13:21:28;;;;;;;5.47;3.60;;;6.10;81.20;;;;;;4966528;28;20035;-77
2023/01/19 13:23:57;;;;;;;4.95;3.33;;;6.20;81.30;;;;;;4962279;28;20106;-78
2023/01/19 13:26:26;;;;;;;4.95;3.05;;;6.20;80.80;;;;;;4957503;28;20050;-78
2023/01/19 13:29:06;;;;;;;4.82;2.92;;;6.20;80.80;;;;;;4963880;28;20109;-78
2023/01/19 13:31:37;;;;;;;4.10;3.55;;;6.20;80.70;;;;;;4949087;28;20486;-80
2023/01/19 13:34:10;;;;;;;5.75;3.20;;;6.20;80.60;;;;;;4959905;28;20485;-79
2023/01/19 13:36:41;;;;;;;8.35;3.67;;;6.30;80.50;;;;;;4959913;28;20086;-79
2023/01/19 13:39:14;;;;;;;6.20;3.47;;;6.40;80.80;;;;;;4958345;28;20037;-77
2023/01/19 13:41:41;;;;;;;7.97;3.80;;;6.40;80.40;;;;;;4965415;28;20054;-79
2023/01/19 13:44:29;;;;;;;9.95;3.95;;;6.50;80.20;;;;;;4946511;28;20540;-78
2023/01/19 13:46:58;;;;;;;6.57;3.20;;;6.50;80.20;;;;;;4945470;28;22088;-78
2023/01/19 13:49:32;;;;;;;9.55;4.50;;;6.50;80.00;;;;;;4964689;28;20027;-77
2023/01/19 13:52:14;;;;;;;5.60;3.13;;;6.50;79.60;;;;;;4958045;28;20035;-79
2023/01/19 13:55:00;;;;;;;5.45;3.00;;;6.50;79.70;;;;;;4966967;28;20019;-78
2023/01/19 13:57:39;;;;;;;7.30;3.22;;;6.50;80.00;;;;;;4956992;28;20146;-80
2023/01/19 14:00:11;;;;;;;6.15;3.15;;;6.40;79.80;;;;;;4957796;29;20478;-78
2023/01/19 14:02:49;;;;;;;6.18;3.90;;;6.40;80.00;;;;;;4958503;28;20038;-78
2023/01/19 14:05:25;;;;;;;9.85;4.20;;;6.40;79.50;;;;;;4965172;28;20027;-79
2023/01/19 14:08:12;;;;;;;8.18;4.03;;;6.40;79.90;;;;;;4948587;28;20035;-79
2023/01/19 14:10:40;;;;;;;5.45;3.60;;;6.30;79.50;;;;;;4961524;28;20022;-79
2023/01/19 14:13:21;;;;;;;5.75;3.53;;;6.30;80.30;;;;;;4971602;28;20035;-79
2023/01/19 14:15:49;;;;;;;4.25;3.35;;;6.20;80.50;;;;;;4952437;28;20031;-79
2023/01/19 14:18:17;;;;;;;11.98;4.75;;;6.20;80.50;;;;;;4947947;28;20023;-78
2023/01/19 14:21:06;;;;;;;4.50;4.10;;;6.20;80.80;;;;;;4976535;28;20118;-78
2023/01/19 14:23:49;;;;;;;6.57;4.32;;;6.20;80.80;;;;;;4974790;28;20091;-78
2023/01/19 14:26:47;;;;;;;6.90;3.83;;;6.30;80.70;;;;;;4956731;28;20475;-78
2023/01/19 14:29:25;;;;;;;6.68;3.78;;;6.20;80.80;;;;;;4959620;28;20034;-78
2023/01/19 14:31:52;;;;;;;8.18;4.60;;;6.20;80.80;;;;;;4939888;28;20051;-79
2023/01/19 14:34:38;;;;;;;4.97;4.25;;;6.20;80.80;;;;;;4958583;28;20031;-79
2023/01/19 14:37:20;;;;;;;8.13;4.93;;;6.20;81.00;;;;;;4963883;28;20402;-79
2023/01/19 14:39:56;;;;;;;8.05;4.25;;;6.10;80.90;;;;;;4947468;28;20035;-78
2023/01/19 14:42:29;;;;;;;9.05;4.38;;;6.20;80.80;;;;;;4966402;28;20512;-78
2023/01/19 14:44:57;;;;;;;9.57;5.63;;;6.20;81.00;;;;;;4963373;28;20035;-79
2023/01/19 14:47:28;;;;;;;6.18;4.57;;;6.30;80.90;;;;;;4947031;28;20023;-78
2023/01/19 14:49:56;;;;;;;9.00;4.53;;;6.40;80.80;;;;;;4962414;28;20023;-78
2023/01/19 14:52:32;;;;;;;5.72;3.85;;;6.50;80.10;;;;;;4964747;28;20033;-78
2023/01/19 14:54:59;;;;;;;10.05;5.13;;;6.50;79.80;;;;;;4945426;28;20034;-78
2023/01/19 14:57:25;;;;;;;5.63;3.80;;;6.50;79.60;;;;;;4964338;28;20062;-77
2023/01/19 14:59:51;;;;;;;3.60;3.08;;;6.60;79.90;;;;;;4965376;28;20062;-77
2023/01/19 15:02:17;;;;;;;6.63;4.15;;;6.50;79.90;;;;;;4956777;28;20030;-78
2023/01/19 15:04:44;;;;;;;4.35;3.10;;;6.40;79.80;;;;;;4957008;28;20125;-77
2023/01/19 15:07:18;;;;;;;8.50;3.95;;;6.30;80.00;;;;;;4974134;28;20133;-78
2023/01/19 15:09:45;;;;;;;6.07;4.45;;;6.30;80.10;;;;;;4929511;28;20081;-77
2023/01/19 15:12:13;;;;;;;10.57;4.60;;;6.20;80.10;;;;;;4960613;28;20042;-77
2023/01/19 15:14:39;;;;;;;3.72;3.30;;;6.20;80.50;;;;;;4942211;29;20383;-78
2023/01/19 15:17:05;;;;;;;10.00;4.03;;;6.10;80.70;;;;;;4956069;28;20027;-77
2023/01/19 15:19:30;;;;;;;6.25;4.47;;;6.10;80.60;;;;;;4962576;28;20039;-77
2023/01/19 15:21:56;;;;;;;5.95;3.67;;;6.10;80.70;;;;;;4960616;28;20027;-77
2023/01/19 15:24:22;;;;;;;7.18;4.30;;;6.10;80.70;;;;;;4952830;28;20038;-77
2023/01/19 15:26:48;;;;;;;6.80;3.92;;;6.10;80.80;;;;;;4943691;29;20103;-77
2023/01/19 15:29:24;;;;;;;6.95;4.20;;;6.10;80.80;;;;;;4956223;28;20034;-78
2023/01/19 15:31:50;;;;;;;4.90;3.90;;;6.10;80.70;;;;;;4953534;28;20074;-78
2023/01/19 15:34:17;;;;;;;14.98;4.70;;;6.20;80.60;;;;;;4943476;29;20124;-77
2023/01/19 15:36:43;;;;;;;10.25;5.78;;;6.20;80.60;;;;;;4945696;28;20027;-78
2023/01/19 15:39:09;;;;;;;9.82;5.10;;;6.20;80.50;;;;;;4949113;28;20098;-78
2023/01/19 15:41:36;;;;;;;14.52;5.45;;;6.20;80.40;;;;;;4969351;28;20074;-78
2023/01/19 15:44:04;;;;;;;14.77;5.70;;;6.20;80.60;;;;;;4964490;28;20058;-78
2023/01/19 15:46:30;;;;;;;8.38;4.40;;;6.20;80.20;;;;;;4967035;28;20508;-78
2023/01/19 15:48:55;;;;;;;5.35;4.32;;;6.20;80.30;;;;;;4964487;28;20039;-78
2023/01/19 15:51:24;;;;;;;7.05;4.30;;;6.10;80.30;;;;;;4947549;28;20074;-77
2023/01/19 15:53:51;;;;;;;6.65;3.85;;;6.10;80.30;;;;;;4966790;28;20026;-77
2023/01/19 15:56:23;;;;;;;17.00;5.13;;;6.10;80.20;;;;;;4948124;28;20062;-78
2023/01/19 15:58:49;;;;;;;12.77;4.18;;;6.10;80.30;;;;;;4959256;28;20035;-77
2023/01/19 16:01:18;;;;;;;6.40;4.65;;;6.00;80.40;;;;;;4950619;28;20474;-78
2023/01/19 16:03:44;;;;;;;6.40;4.53;;;6.00;80.50;;;;;;4965340;28;20031;-77
2023/01/19 16:06:11;;;;;;;8.13;5.47;;;6.00;80.50;;;;;;4948852;28;20035;-78
2023/01/19 16:08:37;;;;;;;13.80;5.22;;;6.00;80.70;;;;;;4949624;28;20027;-78
2023/01/19 16:11:13;;;;;;;5.60;4.45;;;5.90;80.70;;;;;;4968727;28;20054;-77
2023/01/19 16:13:39;;;;;;;10.30;5.47;;;5.90;80.80;;;;;;4966123;28;20422;-78
2023/01/19 16:16:22;;;;;;;11.57;5.50;;;5.80;80.90;;;;;;4935519;28;20047;-77
2023/01/19 16:18:48;;;;;;;9.05;6.25;;;5.80;81.00;;;;;;4964175;28;20106;-79
2023/01/19 16:21:14;;;;;;;11.82;7.32;;;5.70;81.30;;;;;;4968617;28;20027;-80
2023/01/19 16:23:39;;;;;;;9.82;6.90;;;5.70;81.20;;;;;;4961192;28;20035;-78
2023/01/19 16:26:21;;;;;;;15.50;7.22;;;5.70;81.30;;;;;;4959352;28;20533;-79
2023/01/19 16:28:47;;;;;;;7.70;6.60;;;5.50;81.30;;;;;;4959027;28;20027;-78
2023/01/19 16:31:15;;;;;;;11.38;6.95;;;5.50;81.70;;;;;;4968046;28;20189;-80
2023/01/19 16:33:41;;;;;;;11.43;6.63;;;5.40;81.70;;;;;;4955344;28;20051;-79
2023/01/19 16:36:22;;;;;;;8.68;6.63;;;5.30;82.00;;;;;;4944923;28;20212;-79
2023/01/19 16:38:47;;;;;;;8.32;4.78;;;5.30;82.10;;;;;;4965690;28;20481;-79
2023/01/19 16:41:13;;;;;;;11.10;5.78;;;5.30;82.20;;;;;;4976717;28;20062;-79
2023/01/19 16:43:39;;;;;;;10.32;6.32;;;5.30;82.20;;;;;;4974247;28;20513;-77
2023/01/19 16:46:04;;;;;;;6.90;5.93;;;5.30;82.20;;;;;;4960843;28;20463;-78
2023/01/19 16:48:31;;;;;;;8.25;5.50;;;5.30;82.30;;;;;;4958541;28;20046;-85
2023/01/19 16:51:06;;;;;;;7.85;6.13;;;5.30;82.40;;;;;;4960210;28;20043;-78
2023/01/19 16:53:35;;;;;;;10.43;6.95;;;5.30;82.40;;;;;;4967343;28;20034;-78
2023/01/19 16:56:09;;;;;;;16.90;9.35;;;5.40;82.40;;;;;;4966815;28;20445;-79
2023/01/19 16:58:38;;;;;;;25.17;15.07;;;5.30;82.40;;;;;;4966197;28;20030;-80
2023/01/19 17:01:07;;;;;;;24.95;15.48;;;5.30;82.30;;;;;;4948781;28;20031;-80
2023/01/19 17:03:37;;;;;;;19.67;12.80;;;5.30;82.30;;;;;;4961645;28;20114;-78
2023/01/19 17:06:03;;;;;;;18.83;12.30;;;5.30;82.40;;;;;;4963237;28;20481;-80
2023/01/19 17:08:29;;;;;;;16.38;9.13;;;5.30;82.50;;;;;;4962302;28;20035;-81
2023/01/19 17:10:55;;;;;;;13.50;8.07;;;5.30;82.50;;;;;;4966126;28;20478;-80
2023/01/19 17:13:21;;;;;;;13.27;8.18;;;5.20;82.40;;;;;;4944697;28;20023;-80
2023/01/19 17:15:47;;;;;;;15.00;7.75;;;5.20;82.50;;;;;;4947277;28;20119;-80
2023/01/19 17:18:13;;;;;;;9.88;6.32;;;5.20;82.60;;;;;;4945394;28;20713;-80
2023/01/19 17:20:39;;;;;;;11.07;7.10;;;5.10;82.60;;;;;;4963295;28;20022;-80
2023/01/19 17:23:05;;;;;;;11.48;7.60;;;5.20;82.60;;;;;;4946981;28;20019;-80
2023/01/19 17:25:30;;;;;;;8.52;6.47;;;5.10;82.60;;;;;;4947080;28;20039;-83
2023/01/19 17:28:00;;;;;;;10.93;8.00;;;5.10;82.70;;;;;;4964968;28;20027;-83
2023/01/19 17:30:25;;;;;;;11.57;9.00;;;5.10;82.50;;;;;;4966195;28;20031;-79
2023/01/19 17:32:51;;;;;;;19.02;9.20;;;5.00;82.60;;;;;;4961072;28;20062;-79
2023/01/19 17:35:17;;;;;;;16.52;8.80;;;5.00;82.40;;;;;;4963045;28;20033;-80
2023/01/19 17:37:42;;;;;;;17.83;10.60;;;5.00;82.50;;;;;;4935659;28;20035;-76
2023/01/19 17:40:09;;;;;;;10.55;7.85;;;4.90;82.50;;;;;;4962689;28;20058;-76
2023/01/19 17:42:39;;;;;;;16.27;7.75;;;4.90;82.50;;;;;;4937431;28;20035;-76
2023/01/19 17:45:05;;;;;;;12.77;9.70;;;4.80;82.40;;;;;;4947602;28;20042;-76
2023/01/19 17:47:31;;;;;;;17.85;11.80;;;4.80;82.80;;;;;;4961609;28;20039;-76
2023/01/19 17:49:57;;;;;;;28.52;17.65;;;4.80;82.90;;;;;;4965295;28;20525;-76
2023/01/19 17:52:22;;;;;;;27.25;18.05;;;4.80;82.90;;;;;;4964721;28;20035;-76
2023/01/19 17:54:48;;;;;;;29.15;16.95;;;4.80;82.90;;;;;;4965726;28;20030;-76
2023/01/19 17:57:13;;;;;;;25.27;17.33;;;4.90;82.90;;;;;;4962868;28;20023;-76
2023/01/19 17:59:42;;;;;;;32.42;15.68;;;4.90;83.00;;;;;;4966820;28;20035;-76
2023/01/19 18:02:09;;;;;;;21.95;11.57;;;4.90;82.80;;;;;;4963024;28;20039;-76
2023/01/19 18:04:37;;;;;;;18.17;11.07;;;4.90;82.80;;;;;;4963272;28;20039;-76
2023/01/19 18:07:03;;;;;;;22.27;11.48;;;4.90;82.90;;;;;;4963014;28;20090;-76
2023/01/19 18:09:29;;;;;;;14.18;9.55;;;4.90;82.80;;;;;;4967231;28;20030;-76
2023/01/19 18:11:54;;;;;;;19.92;11.73;;;5.00;83.00;;;;;;4965650;28;20074;-76
2023/01/19 18:14:20;;;;;;;20.67;11.73;;;4.90;82.90;;;;;;4966032;28;20765;-76
2023/01/19 18:16:46;;;;;;;17.10;10.10;;;4.90;82.80;;;;;;4964068;28;20031;-76
2023/01/19 18:19:11;;;;;;;20.85;12.57;;;4.90;83.00;;;;;;4964138;28;20034;-76
2023/01/19 18:21:37;;;;;;;18.73;9.63;;;4.90;83.00;;;;;;4964369;28;20434;-76
2023/01/19 18:24:04;;;;;;;19.15;9.50;;;4.90;83.00;;;;;;4963650;28;20039;-76
2023/01/19 18:26:31;;;;;;;12.75;8.70;;;4.90;83.10;;;;;;4965483;28;20468;-76
2023/01/19 18:28:57;;;;;;;11.20;7.22;;;4.80;83.10;;;;;;4964208;28;20031;-76
2023/01/19 18:31:25;;;;;;;9.07;7.63;;;4.80;83.20;;;;;;4962344;28;20091;-76
2023/01/19 18:33:50;;;;;;;10.20;8.00;;;4.80;83.30;;;;;;4962198;28;20046;-76
2023/01/19 18:36:17;;;;;;;9.38;8.40;;;4.90;83.30;;;;;;4964901;28;20031;-76
2023/01/19 18:38:43;;;;;;;14.88;9.07;;;4.90;83.30;;;;;;4965042;28;20106;-76
2023/01/19 18:41:14;;;;;;;17.40;12.20;;;4.90;83.30;;;;;;4960548;28;20019;-76